ADDS METAR Data INFO
IDs: Format: Raw Decoded Include TAF

Data at: 0745 UTC 23 Jul 2018

KEYE 230653Z AUTO 36004KT 10SM CLR 18/16 A2986 RMK AO2 SLP106 T01830156
KEYE 230553Z AUTO 36004KT 10SM CLR 19/15 A2986 RMK AO2 SLP106 T01890150 10250 20189 58001
KEYE 230453Z AUTO 04005KT 10SM OVC044 21/15 A2988 RMK AO2 SLP112 T02060150 402720206
KEYE 230353Z AUTO 04006KT 10SM FEW100 21/16 A2987 RMK AO2 SLP108 T02110156
KEYE 230253Z AUTO VRB04KT 10SM FEW055 BKN110 22/18 A2987 RMK AO2 SLP107 T02170178 51018
KEYE 230153Z AUTO 10SM FEW034 SCT070 OVC100 22/18 A2986 RMK AO2 SLP105 T02170178
KEYE 230053Z AUTO 36008KT 10SM FEW100 23/19 A2983 RMK AO2 SLP096 T02330189
KEYE 222353Z AUTO 36011KT 10SM FEW027 FEW031 BKN095 25/19 A2981 RMK AO2 SLP088 60011 T02500189 10272 20217 53016
KEYE 222253Z AUTO 36006KT 10SM CLR 26/19 A2979 RMK AO2 LTG DSNT S SLP081 T02560194
KEYE 222202Z AUTO 03007KT 10SM CLR 25/19 A2979 RMK AO2 T02500189
KEYE 222153Z AUTO VRB06KT 10SM VCTS CLR 26/19 A2978 RMK AO2 LTG DSNT S RAB00E15 TSB19E36 SLP079 P0000 T02560194
KEYE 222142Z AUTO 01010KT 10SM VCTS CLR 26/19 A2979 RMK AO2 RAB00E15 TSB19E36 P0000 T02560189
KEYE 222119Z AUTO 03006KT 10SM TS FEW023 SCT034 SCT110 24/19 A2978 RMK AO2 RAB00E15 TSB19 P0000 T02390189
KEYE 222053Z AUTO 31005KT 10SM CLR 26/21 A2976 RMK AO2 LTG DSNT E SLP072 60011 T02610211 58000
KEYE 221953Z AUTO 01007KT 10SM CLR 24/21 A2977 RMK AO2 LTG DSNT NE RAB05E34 SLP076 P0003 T02440211
KEYE 221853Z AUTO 03005KT 10SM FEW033 SCT080 BKN100 26/22 A2977 RMK AO2 LTG DSNT W RAB23E46 SLP074 P0008 T02560217
KEYE 221839Z AUTO 04003KT 3SM -RA SCT028 BKN049 OVC085 23/20 A2977 RMK AO2 RAB23 P0008 T02280200
KEYE 221833Z AUTO 07007KT 1 3/4SM +RA SCT028 BKN040 OVC075 22/19 A2977 RMK AO2 LTG DSNT NW RAB23 P0008 T02220194
KEYE 221753Z AUTO 02010KT 10SM SCT025 SCT044 BKN060 27/19 A2977 RMK AO2 SLP072 60002 T02670194 10267 20211 50001
KEYE 221740Z AUTO 03009KT 10SM SCT025 BKN060 26/19 A2976 RMK AO2 T02610194
KEYE 221653Z AUTO 01010KT 10SM BKN024 BKN030 OVC048 26/19 A2977 RMK AO2 SLP074 T02560194
KEYE 221553Z AUTO 01009KT 10SM SCT019 BKN027 BKN047 24/21 A2977 RMK AO2 RAB31E42 CIG 025V039 SLP074 P0002 T02440206
KEYE 221531Z AUTO 35005KT 6SM RA SCT019 BKN029 24/19 A2977 RMK AO2 RAB31 P0002 T02390194
KEYE 221453Z AUTO 03008KT 10SM FEW013 FEW019 BKN034 23/19 A2976 RMK AO2 RAE20 SLP072 P0000 60000 T02330194 51005
KEYE 221427Z AUTO 01007KT 10SM FEW013 FEW025 BKN049 23/21 A2976 RMK AO2 RAE20 P0000 T02280206
KEYE 221353Z AUTO 36005KT 5SM -RA BR FEW007 SCT013 OVC021 22/20 A2976 RMK AO2 RAB42 SLP071 P0000 T02170200
KEYE 221348Z AUTO 35006KT 5SM -RA BR FEW008 SCT013 OVC021 22/19 A2976 RMK AO2 RAB42 P0000
KEYE 221330Z AUTO 35007KT 10SM SCT010 OVC016 22/19 A2975 RMK AO2 T02170194
KEYE 221253Z AUTO 36006KT 9SM OVC008 21/19 A2975 RMK AO2 RAE00 CIG 006V011 SLP067 P0000 T02110194
KEYE 221153Z AUTO 35007KT 5SM -RA BR BKN007 OVC014 21/19 A2974 RMK AO2 RAB48 CIG 004V011 SLP063 P0000 60003 70085 T02110194 10211 20206 53009
KEYE 221053Z AUTO 36007KT 10SM OVC006 21/19 A2972 RMK AO2 RAE06B29E52 SLP059 P0001 T02060194
KEYE 220953Z AUTO 32007KT 4SM RA BR BKN008 OVC014 21/19 A2971 RMK AO2 RAB34 SLP055 P0002 T02060194
KEYE 220853Z AUTO 31007KT 10SM BKN009 OVC014 21/19 A2971 RMK AO2 CIG 007V011 SLP054 60000 T02110189 56004
KEYE 220805Z AUTO 32008KT 10SM BKN009 OVC019 21/19 A2971 RMK AO2 CIG 007V013 T02110189
KEYE 220753Z AUTO 31009KT 10SM BKN011 OVC019 21/19 A2971 RMK AO2 SLP055 T02110189
KEYE 220740Z AUTO 32008KT 10SM SCT009 BKN019 OVC028 21/19 A2971 RMK AO2 T02060189
KEYE 220653Z AUTO 31010KT 10SM BKN012 OVC021 21/19 A2972 RMK AO2 RAB05E22 SLP058 P0000 T02110189
KEYE 220553Z AUTO 31009KT 10SM OVC011 21/19 A2973 RMK AO2 SLP060 60000 T02110189 10244 20211 58004
KEYE 220453Z AUTO 31008KT 10SM OVC013 22/18 A2974 RMK AO2 SLP063 T02170183 402560200
KEYE 220448Z AUTO 31008KT 10SM OVC013 22/18 A2974 RMK AO2
KEYE 220407Z AUTO 31009KT 10SM OVC015 22/18 A2973 RMK AO2 T02170183
KEYE 220353Z AUTO 32008KT 10SM OVC014 22/18 A2974 RMK AO2 SLP065 T02170183
KEYE 220348Z AUTO 33009G16KT 10SM OVC014 22/19 A2974 RMK AO2
KEYE 220253Z AUTO 32011KT 10SM OVC017 22/18 A2975 RMK AO2 RAB05E14 SLP068 P0000 60000 T02220183 53008
KEYE 220153Z AUTO 31010KT 10SM SCT019 OVC025 23/19 A2974 RMK AO2 RAB05E18 SLP065 P0000 T02280189
KEYE 220053Z AUTO 31016G21KT 10SM BKN025 OVC037 23/18 A2973 RMK AO2 SLP060 T02330183
KEYE 220036Z AUTO 31012KT 10SM BKN025 OVC035 23/19 A2973 RMK AO2 T02330189
KEYE 212353Z AUTO 31011KT 10SM FEW024 SCT046 24/19 A2973 RMK AO2 SLP060 60075 T02390189 10256 20211 53007
KEYE 212253Z AUTO 31015G21KT 10SM FEW025 SCT030 OVC039 24/19 A2971 RMK AO2 LTG DSNT E SLP055 T02440194
KEYE 212211Z AUTO 32015G20KT 10SM SCT023 SCT031 OVC075 25/21 A2972 RMK AO2 T02500206
KEYE 212153Z AUTO 32007KT 10SM SCT020 BKN025 BKN031 24/22 A2972 RMK AO2 RAE07B32E45 SLP056 P0001 T02440217
KEYE 212118Z AUTO 31011KT 10SM SCT014 BKN028 OVC095 24/21 A2970 RMK AO2 RAE07 P0001 T02390211
KEYE 212102Z AUTO 32011G16KT 5SM VCTS -RA BR SCT014 BKN025 OVC090 23/21 A2971 RMK AO2 LTG DSNT N AND NE P0001 T02330211
KEYE 212053Z AUTO 30007KT 6SM VCTS -RA BR FEW016 SCT037 BKN065 23/21 A2970 RMK AO2 LTG DSNT NW-NE RAE26B35 TSB1957E22 SLP052 P0052 60074 T02280211 58004
KEYE 212028Z AUTO 30008KT 10SM VCTS FEW007 SCT034 BKN046 22/21 A2971 RMK AO2 LTG DSNT NW-NE RAE26 TSB1957E22 P0049 T02220206
KEYE 212016Z AUTO 32007KT 3SM TSRA BR SCT008 BKN025 OVC040 22/20 A2971 RMK AO2 LTG DSNT NE TSB1957 P0049 T02170200
KEYE 212013Z AUTO 31008KT 2SM -TSRA BR BKN008 BKN018 OVC050 22/20 A2971 RMK AO2 VIS 3/4V5 LTG DSNT N AND NE TSB1957 P0049 T02170200
KEYE 212008Z AUTO 30009KT 3/4SM +TSRA BR FEW006 BKN012 OVC022 21/20 A2971 RMK AO2 LTG DSNT N AND NE TSB1957 P0048 T02110200
KEYE 211958Z AUTO 31008KT 1/2SM +TSRA FG SCT011 BKN022 OVC050 22/21 A2972 RMK AO2 TSB57 P0030 T02170206
KEYE 211953Z AUTO 28005KT 1SM +RA BR SCT011 BKN020 OVC060 22/20 A2971 RMK AO2 RAB01E26B42 SLP055 P0022 T02220200